Jonesboro, Louisiana
Current Conditions -  °F | °C
As of 8:35 PM on Wednesday 17 Dec 2014 (Local Time) from KRSN Reporting Station
Scattered Clouds Scattered Clouds  
Wind Chill: 44°   Ceiling: Unl
Heat Index: 46°   Visibility: 10mi
Dew Point: 40°   Wind: 5mph
Humidity: 80%   Direction: 100°E
Pressure: 30.21"   Gusts: NA
Location:  32.24°N, 92.72°W
Report Text: KRSN 180235Z AUTO 10004KT 10SM SCT060 SCT080 SCT120 08/05 A3021 RMK AO2 T00770045
Loading
Personal Weather Stations






























Interactive Weather Map New forecast layout! Learn more

10-Day Weather Forecast

Advertisements
Track Severe Weather on mobile